Terminal Aerodrome Forecast
Issued by NWS

Home | Current Version | Previous Version | Graphics & Text | Print | Product List | Glossary On
Versions: 1 2 3 4 5 6 7 8 9 10 11 12 13 14 15 16 17 18 19 20 21 22 23 24 25 26 27 28 29 30 31 32 33 34
000
FTUS43 KLOT 262000 AAB
TAFMDW
TAF AMD
KMDW 262001Z 2620/2718 36012KT P6SM -SHSN SCT020 OVC030
     FM262030 35012G16KT P6SM BKN045
     FM262200 34012KT P6SM SCT045
     FM270200 33007KT P6SM FEW040
     FM271500 27009KT P6SM SKC=

USA.gov is the U.S. government's official web portal to all federal, state and local government web resources and services.